Time;durP1;ratioP1;P1;durP2;ratioP2;P2;SDS_P1;SDS_P2;PMS_P1;PMS_P2;Temp;Humidity;BMP_temperature;BMP_pressure;BME280_temperature;BME280_humidity;BME280_pressure;Samples;Min_cycle;Max_cycle;Signal;HPM_P1;HPM_P2
2023/08/09 18:29:28;;;;;;;5.60;0.90;;;17.90;1.00;;;;;;4954523;28;20422;-79
2023/08/09 18:31:54;;;;;;;3.60;1.00;;;17.40;1.00;;;;;;4979067;28;20118;-76
2023/08/09 18:34:19;;;;;;;5.50;0.90;;;17.50;1.00;;;;;;4975145;28;20623;-73
2023/08/09 18:36:45;;;;;;;2.55;0.70;;;17.50;1.00;;;;;;4975140;28;20187;-74
2023/08/09 18:39:11;;;;;;;1.75;0.65;;;17.40;1.00;;;;;;5001838;28;20458;-74
2023/08/09 18:41:36;;;;;;;4.97;0.80;;;17.20;1.00;;;;;;4983018;28;20049;-74
2023/08/09 18:44:02;;;;;;;2.75;0.93;;;17.20;1.00;;;;;;4995257;28;20066;-74
2023/08/09 18:46:28;;;;;;;1.92;0.80;;;17.10;1.00;;;;;;4985284;28;20475;-74
2023/08/09 18:48:54;;;;;;;8.23;1.17;;;17.00;1.00;;;;;;4986326;28;20041;-77
2023/08/09 18:51:19;;;;;;;2.22;0.70;;;16.80;1.00;;;;;;4994729;28;20255;-74
2023/08/09 18:53:45;;;;;;;2.38;0.80;;;16.70;1.00;;;;;;5002750;28;20126;-74
2023/08/09 18:56:10;;;;;;;3.35;1.00;;;16.60;1.00;;;;;;5002584;28;20026;-73
2023/08/09 18:58:36;;;;;;;2.90;1.17;;;16.50;1.00;;;;;;5015969;28;20504;-74
2023/08/09 19:01:02;;;;;;;2.83;0.80;;;16.50;1.00;;;;;;4991303;28;20481;-73
2023/08/09 19:03:28;;;;;;;3.95;0.90;;;16.50;1.00;;;;;;4983819;28;20956;-74
2023/08/09 19:05:53;;;;;;;4.97;0.98;;;16.30;1.00;;;;;;5001370;28;20158;-74
2023/08/09 19:08:19;;;;;;;6.10;1.02;;;16.20;1.00;;;;;;5014891;28;20141;-74
2023/08/09 19:10:45;;;;;;;4.25;1.13;;;16.20;1.00;;;;;;5000281;28;20121;-74
2023/08/09 19:13:11;;;;;;;2.53;0.90;;;16.10;1.00;;;;;;5017079;28;20034;-74
2023/08/09 19:15:38;;;;;;;3.00;0.75;;;16.10;1.00;;;;;;4993417;28;20512;-74
2023/08/09 19:18:03;;;;;;;2.30;0.70;;;16.10;1.00;;;;;;4997740;28;20092;-74
2023/08/09 19:20:29;;;;;;;3.45;0.80;;;16.10;1.00;;;;;;4996639;28;20530;-73
2023/08/09 19:22:56;;;;;;;3.53;0.82;;;16.00;1.00;;;;;;5002784;28;20046;-73
2023/08/09 19:25:21;;;;;;;3.17;1.73;;;16.00;8.40;;;;;;4997376;28;20050;-73
2023/08/09 19:27:47;;;;;;;2.75;1.25;;;15.90;21.90;;;;;;5003228;28;20115;-74
2023/08/09 19:30:13;;;;;;;3.63;0.90;;;15.90;99.90;;;;;;5014972;28;20050;-74
2023/08/09 19:32:39;;;;;;;4.80;1.50;;;15.80;92.80;;;;;;4977687;28;20041;-74
2023/08/09 19:35:06;;;;;;;2.33;0.98;;;15.70;94.10;;;;;;4997488;28;20050;-74
2023/08/09 19:37:32;;;;;;;3.85;1.10;;;15.70;99.90;;;;;;4983238;28;20132;-74
2023/08/09 19:40:00;;;;;;;3.97;1.02;;;15.60;99.90;;;;;;4988808;28;20749;-74
2023/08/09 19:42:26;;;;;;;3.42;1.00;;;15.50;99.90;;;;;;5001298;28;20238;-74
2023/08/09 19:44:52;;;;;;;3.72;1.20;;;15.50;99.90;;;;;;5002711;28;20120;-73
2023/08/09 19:47:17;;;;;;;4.10;1.20;;;15.40;99.90;;;;;;4994384;28;20042;-74
2023/08/09 19:49:43;;;;;;;4.05;1.13;;;15.30;99.90;;;;;;4989495;28;20615;-73
2023/08/09 19:52:08;;;;;;;6.65;1.92;;;15.20;99.90;;;;;;4973719;28;20126;-74
2023/08/09 19:54:34;;;;;;;6.45;4.47;;;15.00;99.90;;;;;;4972181;28;20420;-74
2023/08/09 19:57:00;;;;;;;9.32;4.28;;;14.90;99.90;;;;;;5008082;28;20045;-74
2023/08/09 19:59:25;;;;;;;33.60;18.05;;;14.80;99.90;;;;;;4995974;28;20038;-74
2023/08/09 20:01:51;;;;;;;29.08;16.60;;;14.70;99.90;;;;;;4986968;28;20046;-73
2023/08/09 20:04:17;;;;;;;6.35;2.60;;;14.60;99.90;;;;;;4974779;28;20046;-74
2023/08/09 20:06:43;;;;;;;9.35;4.18;;;14.50;99.90;;;;;;5004250;28;20033;-74
2023/08/09 20:09:09;;;;;;;5.82;2.33;;;14.40;99.90;;;;;;4995253;28;20405;-74
2023/08/09 20:11:35;;;;;;;4.25;2.42;;;14.40;99.90;;;;;;4984434;28;20030;-74
2023/08/09 20:14:01;;;;;;;8.00;5.25;;;14.20;99.90;;;;;;4975155;28;20088;-74
2023/08/09 20:16:26;;;;;;;6.50;3.90;;;14.20;99.90;;;;;;4992502;28;20495;-74
2023/08/09 20:18:52;;;;;;;10.27;9.27;;;14.10;99.90;;;;;;4988317;28;20562;-73
2023/08/09 20:21:19;;;;;;;5.38;3.88;;;14.10;99.90;;;;;;4983379;28;20632;-74
2023/08/09 20:23:45;;;;;;;9.38;6.25;;;14.00;99.90;;;;;;4995932;28;20034;-75
2023/08/09 20:26:11;;;;;;;4.80;2.10;;;13.90;99.90;;;;;;4984153;28;20121;-75
2023/08/09 20:28:37;;;;;;;2.33;1.55;;;13.90;1.00;;;;;;4981041;28;20056;-74
2023/08/09 20:31:04;;;;;;;8.88;4.05;;;13.80;1.00;;;;;;4980097;28;20042;-75
2023/08/09 20:33:30;;;;;;;6.18;1.80;;;13.70;1.00;;;;;;4905596;28;20050;-74
2023/08/09 20:35:55;;;;;;;7.10;5.32;;;13.70;1.00;;;;;;4972623;28;20418;-73
2023/08/09 20:38:21;;;;;;;5.18;1.95;;;13.70;1.00;;;;;;4981433;28;20093;-74
2023/08/09 20:40:51;;;;;;;5.07;2.95;;;13.60;1.00;;;;;;4988297;28;20042;-74
2023/08/09 20:43:17;;;;;;;3.90;1.25;;;13.60;1.00;;;;;;4989440;28;20432;-74
2023/08/09 20:45:49;;;;;;;2.10;1.40;;;13.50;1.00;;;;;;4983535;28;20039;-74
2023/08/09 20:48:18;;;;;;;4.63;3.63;;;13.40;1.00;;;;;;4976421;28;20054;-77
2023/08/09 20:50:44;;;;;;;4.32;0.90;;;13.40;15.00;;;;;;4982093;28;20045;-74
2023/08/09 20:53:10;;;;;;;3.33;1.60;;;13.30;4.70;;;;;;4982519;28;20046;-75
2023/08/09 20:55:44;;;;;;;5.78;1.50;;;13.20;70.90;;;;;;4982241;28;20041;-75
2023/08/09 20:58:09;;;;;;;7.75;1.15;;;13.20;99.90;;;;;;4980500;28;20038;-75
2023/08/09 21:00:36;;;;;;;1.98;1.08;;;13.10;89.40;;;;;;5005267;28;20439;-75
2023/08/09 21:03:02;;;;;;;4.50;1.30;;;13.10;99.90;;;;;;4984162;28;20116;-75
2023/08/09 21:05:28;;;;;;;4.13;1.40;;;13.00;99.90;;;;;;4984459;28;20120;-75
2023/08/09 21:07:53;;;;;;;2.50;1.17;;;13.00;99.90;;;;;;4983845;28;20101;-75
2023/08/09 21:10:19;;;;;;;3.13;1.20;;;13.00;99.90;;;;;;4984498;28;20042;-74
2023/08/09 21:12:45;;;;;;;3.53;1.77;;;12.90;99.90;;;;;;5001372;28;20386;-75
2023/08/09 21:15:10;;;;;;;2.97;1.33;;;12.90;99.90;;;;;;4984562;28;20061;-74
2023/08/09 21:17:38;;;;;;;2.30;1.20;;;12.90;99.90;;;;;;5001084;28;20404;-75
2023/08/09 21:20:04;;;;;;;3.58;1.20;;;12.90;99.90;;;;;;4981056;28;20035;-75
2023/08/09 21:22:30;;;;;;;3.47;1.05;;;12.80;99.90;;;;;;4996586;28;20047;-74
2023/08/09 21:24:56;;;;;;;2.97;1.20;;;12.70;99.90;;;;;;4976767;28;21046;-74
2023/08/09 21:27:21;;;;;;;3.90;1.10;;;12.70;99.90;;;;;;4984737;28;20054;-75
2023/08/09 21:29:47;;;;;;;2.17;1.25;;;12.60;99.90;;;;;;4966347;28;20054;-75
2023/08/09 21:32:13;;;;;;;3.58;1.20;;;12.60;99.90;;;;;;4972152;28;20046;-75
2023/08/09 21:34:39;;;;;;;2.80;1.60;;;12.60;99.90;;;;;;4967800;28;20048;-76
2023/08/09 21:37:04;;;;;;;6.18;1.85;;;12.60;99.90;;;;;;4999188;28;20408;-75
2023/08/09 21:39:30;;;;;;;2.65;1.17;;;12.70;99.90;;;;;;5000419;28;20408;-74
2023/08/09 21:41:56;;;;;;;3.22;1.35;;;12.70;99.90;;;;;;4982240;28;20042;-75
2023/08/09 21:44:21;;;;;;;2.28;1.10;;;12.60;99.90;;;;;;4984279;28;20460;-74
2023/08/09 21:46:47;;;;;;;3.10;1.30;;;12.70;99.90;;;;;;4981916;28;20038;-75
2023/08/09 21:49:12;;;;;;;4.57;1.50;;;12.70;99.90;;;;;;4973336;28;20065;-75
2023/08/09 21:51:38;;;;;;;3.53;1.38;;;12.70;99.90;;;;;;4998438;28;20050;-75
2023/08/09 21:54:04;;;;;;;3.47;1.27;;;12.80;99.90;;;;;;4989245;28;20045;-75
2023/08/09 21:56:30;;;;;;;3.33;1.58;;;12.80;99.90;;;;;;4988582;28;20072;-75
2023/08/09 21:58:55;;;;;;;3.67;1.55;;;12.80;99.90;;;;;;4983665;28;20503;-75
2023/08/09 22:01:22;;;;;;;4.63;1.45;;;12.80;99.90;;;;;;4969824;28;20044;-75
2023/08/09 22:03:48;;;;;;;10.77;1.65;;;12.90;99.90;;;;;;4984954;28;20127;-75
2023/08/09 22:06:14;;;;;;;2.45;1.50;;;12.90;99.90;;;;;;4984503;28;20477;-74
2023/08/09 22:08:39;;;;;;;3.65;1.33;;;13.00;99.90;;;;;;4980298;28;20263;-75
2023/08/09 22:11:06;;;;;;;4.65;2.03;;;13.00;99.90;;;;;;5001158;28;20131;-75
2023/08/09 22:13:33;;;;;;;2.75;1.27;;;13.00;99.90;;;;;;4999842;28;20060;-76
2023/08/09 22:15:58;;;;;;;1.92;1.13;;;13.10;99.90;;;;;;4985094;28;20113;-75
2023/08/09 22:18:24;;;;;;;5.80;1.70;;;13.10;99.90;;;;;;4999434;28;20129;-74
2023/08/09 22:20:50;;;;;;;4.05;1.55;;;13.10;99.90;;;;;;5001153;28;20053;-74
2023/08/09 22:23:16;;;;;;;5.07;1.73;;;13.10;99.90;;;;;;4982726;28;20048;-74
2023/08/09 22:25:42;;;;;;;6.43;1.70;;;13.20;99.90;;;;;;4969569;28;20250;-75
2023/08/09 22:28:11;;;;;;;4.43;1.40;;;13.10;99.90;;;;;;4978149;28;20061;-75
2023/08/09 22:30:37;;;;;;;4.88;1.55;;;13.10;99.90;;;;;;4980296;28;20049;-74
2023/08/09 22:33:03;;;;;;;8.63;1.95;;;13.10;99.90;;;;;;4997365;28;20036;-75
2023/08/09 22:35:29;;;;;;;3.70;1.30;;;13.10;99.90;;;;;;4984032;28;20909;-74
2023/08/09 22:37:54;;;;;;;6.57;1.73;;;13.10;99.90;;;;;;4989690;28;20045;-74
2023/08/09 22:40:20;;;;;;;3.92;1.40;;;13.10;99.90;;;;;;4977658;28;20044;-74
2023/08/09 22:42:46;;;;;;;3.63;1.40;;;13.10;99.90;;;;;;4983185;28;20046;-75
2023/08/09 22:45:11;;;;;;;4.07;1.52;;;13.10;99.90;;;;;;4983811;28;20042;-76
2023/08/09 22:47:37;;;;;;;6.07;1.83;;;13.20;99.90;;;;;;4994269;28;20536;-74
2023/08/09 22:50:03;;;;;;;5.15;1.50;;;13.20;99.90;;;;;;4999152;28;20053;-75
2023/08/09 22:52:28;;;;;;;5.68;1.70;;;13.20;99.90;;;;;;4980085;28;20042;-74
2023/08/09 22:54:54;;;;;;;5.97;1.30;;;13.20;99.90;;;;;;4969531;28;20061;-75
2023/08/09 22:57:20;;;;;;;3.33;1.42;;;13.20;99.90;;;;;;4984566;28;20100;-74
2023/08/09 22:59:45;;;;;;;5.35;1.65;;;13.20;99.90;;;;;;4981246;28;20030;-75
2023/08/09 23:02:11;;;;;;;5.82;2.35;;;13.20;99.90;;;;;;4978802;28;20093;-74
2023/08/09 23:04:37;;;;;;;4.47;1.50;;;13.20;99.90;;;;;;4999705;28;20121;-75
2023/08/09 23:07:02;;;;;;;3.15;1.63;;;13.20;99.90;;;;;;4979001;28;20119;-74
2023/08/09 23:09:29;;;;;;;3.63;1.50;;;13.10;99.90;;;;;;4981589;28;20038;-75
2023/08/09 23:11:56;;;;;;;5.53;1.60;;;13.20;99.90;;;;;;4982341;28;20641;-74
2023/08/09 23:14:21;;;;;;;3.60;1.63;;;13.20;1.00;;;;;;4999415;28;20042;-74
2023/08/09 23:16:47;;;;;;;5.07;1.38;;;13.20;1.00;;;;;;4999877;28;20103;-75
2023/08/09 23:19:13;;;;;;;4.30;1.60;;;13.20;1.00;;;;;;4995408;28;20515;-75
2023/08/09 23:21:39;;;;;;;11.48;1.70;;;13.20;1.00;;;;;;4986895;28;20046;-75
2023/08/09 23:24:05;;;;;;;3.53;1.35;;;13.20;1.00;;;;;;4971523;28;20072;-74
2023/08/09 23:26:30;;;;;;;4.32;1.65;;;13.20;1.00;;;;;;4986665;28;20042;-75
2023/08/09 23:28:56;;;;;;;3.88;1.60;;;13.20;99.90;;;;;;4988469;28;20061;-75
2023/08/09 23:31:22;;;;;;;3.92;1.25;;;13.20;1.00;;;;;;4984904;28;20042;-75
2023/08/09 23:33:47;;;;;;;4.20;1.75;;;13.20;1.00;;;;;;4980665;28;20046;-75
2023/08/09 23:36:13;;;;;;;7.40;1.27;;;13.20;1.00;;;;;;5002107;28;20409;-74
2023/08/09 23:38:40;;;;;;;5.53;1.85;;;13.20;99.90;;;;;;5001824;28;20034;-75
2023/08/09 23:41:07;;;;;;;5.28;2.30;;;13.30;99.90;;;;;;5003181;28;20077;-75
2023/08/09 23:43:33;;;;;;;4.15;1.55;;;13.20;1.00;;;;;;4977588;28;20119;-75
2023/08/09 23:45:58;;;;;;;2.47;1.38;;;13.30;99.90;;;;;;4971298;28;20125;-74
2023/08/09 23:48:24;;;;;;;3.60;1.50;;;13.20;1.00;;;;;;4986864;28;20053;-74
2023/08/09 23:50:49;;;;;;;4.03;1.83;;;13.30;1.00;;;;;;4984531;28;20570;-75
2023/08/09 23:53:15;;;;;;;3.53;2.22;;;13.20;1.00;;;;;;5006187;28;20050;-74
2023/08/09 23:55:41;;;;;;;3.88;1.52;;;13.20;1.00;;;;;;5004107;28;20069;-75
2023/08/09 23:58:06;;;;;;;5.60;1.63;;;13.20;1.00;;;;;;4985459;28;20046;-74
